< < Back
Terminal Aerodrome Forecast


Current Version              Previous Versions:   1  2  3  4  5  6  7  8  9  

Terminal Aerodrome Forecast

067
FTUS42 KCHS 222000 AAC
TAFCHS
TAF AMD
KCHS 222042Z 2221/2318 02006KT 6SM -RA BR OVC004
     FM222230 03006KT 4SM -RA BR OVC004
     FM230000 04005KT 3/4SM -DZ BR OVC003
     FM230500 05005KT 1/2SM FG OVC002
     FM231400 VRB05KT 3SM BR OVC004=

Latest METAR

178
SAUS80 KWBC 222200 RRA
MTRCHS
METAR KCHS 222156Z 35005KT 5SM RA BR OVC004 09/08 A3000 RMK AO2 SLP159
P0004 T00890078


USA.gov is the U.S. government's official web portal to all federal, state and local government web resources and services.